Terminal Aerodrome Forecast
Issued by NWS

Home | Current Version | Previous Version | Text Only | Print | Product List | Glossary On
Versions: 1 2 3 4 5 6 7 8 9 10 11 12
000
FTUS44 KTSA 092300
TAFRVS
TAF
KRVS 092328Z 1000/1024 11006KT P6SM FEW080 SCT250
     FM101100 10003KT P6SM SCT050 BKN120 PROB30 1012/1018 5SM -TSRA
      BKN050CB
     FM101800 15008KT P6SM VCTS SCT050CB BKN250
     FM102100 15008KT P6SM BKN250=

USA.gov is the U.S. government's official web portal to all federal, state and local government web resources and services.